Sardinia Vera — IBWV — position and weather

sailwx.info

Track history (hours):
 
Tides and Currents Weather Stations Pressure Air Temp Water Temp Dewpoint Dewpoint Depression Visibility Wind Speed Wind Dir Waves Ship Positions

Sardinia Vera

Last reported at 2014-Sep-01 10:33 UTC. Time now 2014-Sep-01 11:13 UTC.
Position N 43°33' E 010°18'.

; draft 5.2 m.

Type: Passenger vessel. MMSI: 247392000.

Date/timePositionNaut miles runAvg speedWind from/ knotsBaromVisibWave heightAir tempDewpointWater temp
2014-Sep-01 10:33N 43°33' E 010°18'0 0.0
2014-Sep-01 09:03N 43°33' E 010°18'0 0.0
2014-Sep-01 07:27N 43°33' E 010°18'0 0.0
2014-Sep-01 06:27N 43°33' E 010°18'0 0.0
2014-Sep-01 05:34N 43°33' E 010°18'1111.1
2014-Sep-01 04:33N 43°24' E 010°10'1515.0
2014-Sep-01 03:33N 43°10' E 010°02'5 0.2
2014-Aug-30 21:33N 43°13' E 010°07'1717.3
2014-Aug-30 20:33N 43°30' E 010°13'5 4.5
2014-Aug-30 19:33N 43°33' E 010°18'0 0.0
2014-Aug-30 18:31N 43°33' E 010°18'1010.2
2014-Aug-30 17:33N 43°26' E 010°09'1716.9
2014-Aug-30 16:33N 43°14' E 009°52'10 1.6
2014-Aug-30 10:33N 43°10' E 010°04'1717.5
2014-Aug-30 09:33N 43°27' E 010°11'8 8.0
2014-Aug-30 08:34N 43°33' E 010°18'0 0.0
2014-Aug-30 07:33N 43°33' E 010°18'0 0.0
2014-Aug-30 06:31N 43°33' E 010°18'0 0.0
2014-Aug-30 05:33N 43°33' E 010°18'4 4.0
2014-Aug-30 04:34N 43°30' E 010°14'1616.3
2014-Aug-30 03:33N 43°15' E 010°07'1616.1
2014-Aug-30 02:34N 42°59' E 010°04'3316.5
2014-Aug-30 00:33N 42°26' E 009°55'49 1.7
2014-Aug-28 20:33N 43°15' E 010°08'1716.5
2014-Aug-28 19:33N 43°31' E 010°12'5 4.6
2014-Aug-28 18:32N 43°33' E 010°18'0 0.0
2014-Aug-28 17:33N 43°33' E 010°18'3 3.3
2014-Aug-28 16:34N 43°31' E 010°15'1616.1
2014-Aug-28 15:34N 43°16' E 010°08'1615.9
2014-Aug-28 14:34N 42°60' E 010°04'5 0.3
2014-Aug-27 21:31N 43°05' E 010°05'1717.9
2014-Aug-27 20:33N 43°21' E 010°10'1313.1
2014-Aug-27 19:34N 43°33' E 010°18'0 0.1
2014-Aug-27 18:33N 43°33' E 010°18'0 0.0
2014-Aug-27 17:33N 43°33' E 010°18'4 3.9
2014-Aug-27 16:33N 43°31' E 010°14'1616.1
2014-Aug-27 15:33N 43°15' E 010°08'1616.0
2014-Aug-27 14:33N 42°59' E 010°03'5517.2
2014-Aug-27 11:21N 42°05' E 009°51'60 4.4
2014-Aug-26 21:29N 43°05' E 010°04'1617.5
2014-Aug-26 20:33N 43°20' E 010°10'1413.9
2014-Aug-26 19:33N 43°33' E 010°18'0 0.4
2014-Aug-26 18:33N 43°33' E 010°18'0 0.0
2014-Aug-26 17:32N 43°33' E 010°18'1111.4
2014-Aug-26 16:34N 43°23' E 010°11'1616.3
2014-Aug-26 15:33N 43°07' E 010°06'4 0.2
2014-Aug-25 20:28N 43°11' E 010°07'1617.6
2014-Aug-25 19:33N 43°27' E 010°12'8 1.8
2014-Aug-25 15:08N 43°33' E 010°18'0 0.0
2014-Aug-25 12:14N 43°33' E 010°18'0 0.0
2014-Aug-25 10:32N 43°33' E 010°18'0 0.0
2014-Aug-25 07:32N 43°33' E 010°18'0 0.0
2014-Aug-25 05:20N 43°33' E 010°18'5 6.5
2014-Aug-25 04:33N 43°30' E 010°13'1616.4
2014-Aug-25 03:33N 43°14' E 010°05'3 0.1
2014-Aug-23 21:33N 43°17' E 010°07'1615.5
2014-Aug-23 20:33N 43°32' E 010°16'2 2.2
2014-Aug-23 19:33N 43°33' E 010°18'23 1.4
2014-Aug-23 03:33N 43°12' E 010°06'  
Track history (hours):
 
Tides and Currents Weather Stations Pressure Air Temp Water Temp Dewpoint Dewpoint Depression Visibility Wind Speed Wind Dir Waves Ship Positions

Sardinia Vera

Last reported at 2014-Sep-01 10:33 UTC. Time now 2014-Sep-01 11:13 UTC.
Position N 43°33' E 010°18'.

; draft 5.2 m.

Type: Passenger vessel. MMSI: 247392000.

Date/timePositionNaut miles runAvg speedWind from/ knotsBaromVisibWave heightAir tempDewpointWater temp
2014-Sep-01 10:33N 43°33' E 010°18'0 0.0
2014-Sep-01 09:03N 43°33' E 010°18'0 0.0
2014-Sep-01 07:27N 43°33' E 010°18'0 0.0
2014-Sep-01 06:27N 43°33' E 010°18'0 0.0
2014-Sep-01 05:34N 43°33' E 010°18'1111.1
2014-Sep-01 04:33N 43°24' E 010°10'1515.0
2014-Sep-01 03:33N 43°10' E 010°02'5 0.2
2014-Aug-30 21:33N 43°13' E 010°07'1717.3
2014-Aug-30 20:33N 43°30' E 010°13'5 4.5
2014-Aug-30 19:33N 43°33' E 010°18'0 0.0
2014-Aug-30 18:31N 43°33' E 010°18'1010.2
2014-Aug-30 17:33N 43°26' E 010°09'1716.9
2014-Aug-30 16:33N 43°14' E 009°52'10 1.6
2014-Aug-30 10:33N 43°10' E 010°04'1717.5
2014-Aug-30 09:33N 43°27' E 010°11'8 8.0
2014-Aug-30 08:34N 43°33' E 010°18'0 0.0
2014-Aug-30 07:33N 43°33' E 010°18'0 0.0
2014-Aug-30 06:31N 43°33' E 010°18'0 0.0
2014-Aug-30 05:33N 43°33' E 010°18'4 4.0
2014-Aug-30 04:34N 43°30' E 010°14'1616.3
2014-Aug-30 03:33N 43°15' E 010°07'1616.1
2014-Aug-30 02:34N 42°59' E 010°04'3316.5
2014-Aug-30 00:33N 42°26' E 009°55'49 1.7
2014-Aug-28 20:33N 43°15' E 010°08'1716.5
2014-Aug-28 19:33N 43°31' E 010°12'5 4.6
2014-Aug-28 18:32N 43°33' E 010°18'0 0.0
2014-Aug-28 17:33N 43°33' E 010°18'3 3.3
2014-Aug-28 16:34N 43°31' E 010°15'1616.1
2014-Aug-28 15:34N 43°16' E 010°08'1615.9
2014-Aug-28 14:34N 42°60' E 010°04'5 0.3
2014-Aug-27 21:31N 43°05' E 010°05'1717.9
2014-Aug-27 20:33N 43°21' E 010°10'1313.1
2014-Aug-27 19:34N 43°33' E 010°18'0 0.1
2014-Aug-27 18:33N 43°33' E 010°18'0 0.0
2014-Aug-27 17:33N 43°33' E 010°18'4 3.9
2014-Aug-27 16:33N 43°31' E 010°14'1616.1
2014-Aug-27 15:33N 43°15' E 010°08'1616.0
2014-Aug-27 14:33N 42°59' E 010°03'5517.2
2014-Aug-27 11:21N 42°05' E 009°51'60 4.4
2014-Aug-26 21:29N 43°05' E 010°04'1617.5
2014-Aug-26 20:33N 43°20' E 010°10'1413.9
2014-Aug-26 19:33N 43°33' E 010°18'0 0.4
2014-Aug-26 18:33N 43°33' E 010°18'0 0.0
2014-Aug-26 17:32N 43°33' E 010°18'1111.4
2014-Aug-26 16:34N 43°23' E 010°11'1616.3
2014-Aug-26 15:33N 43°07' E 010°06'4 0.2
2014-Aug-25 20:28N 43°11' E 010°07'1617.6
2014-Aug-25 19:33N 43°27' E 010°12'8 1.8
2014-Aug-25 15:08N 43°33' E 010°18'0 0.0
2014-Aug-25 12:14N 43°33' E 010°18'0 0.0
2014-Aug-25 10:32N 43°33' E 010°18'0 0.0
2014-Aug-25 07:32N 43°33' E 010°18'0 0.0
2014-Aug-25 05:20N 43°33' E 010°18'5 6.5
2014-Aug-25 04:33N 43°30' E 010°13'1616.4
2014-Aug-25 03:33N 43°14' E 010°05'3 0.1
2014-Aug-23 21:33N 43°17' E 010°07'1615.5
2014-Aug-23 20:33N 43°32' E 010°16'2 2.2
2014-Aug-23 19:33N 43°33' E 010°18'23 1.4
2014-Aug-23 03:33N 43°12' E 010°06'  

Dump ship's entire track history